Time;durP1;ratioP1;P1;durP2;ratioP2;P2;SDS_P1;SDS_P2;PMS_P1;PMS_P2;Temp;Humidity;BMP_temperature;BMP_pressure;BME280_temperature;BME280_humidity;BME280_pressure;Samples;Min_cycle;Max_cycle;Signal;HPM_P1;HPM_P2
2023/09/22 00:00:04;;;;;;;2.70;2.50;;;17.90;99.90;;;;;;5014732;28;20771;-67
2023/09/22 00:02:30;;;;;;;3.73;2.13;;;17.90;99.90;;;;;;5015352;28;20430;-67
2023/09/22 00:04:57;;;;;;;2.90;2.30;;;17.90;99.90;;;;;;4998180;28;20407;-68
2023/09/22 00:07:24;;;;;;;2.07;1.87;;;17.90;99.90;;;;;;4997941;28;20947;-68
2023/09/22 00:09:51;;;;;;;2.30;2.20;;;17.80;99.90;;;;;;4997535;28;20435;-66
2023/09/22 00:12:17;;;;;;;3.30;2.00;;;17.70;99.90;;;;;;4997951;28;20427;-69
2023/09/22 00:14:43;;;;;;;2.33;2.00;;;17.80;99.90;;;;;;4997898;28;20527;-69
2023/09/22 00:17:09;;;;;;;2.10;1.90;;;17.80;99.90;;;;;;4996516;28;20530;-67
2023/09/22 00:19:37;;;;;;;2.47;2.30;;;17.90;99.90;;;;;;4997041;28;20933;-68
2023/09/22 00:22:04;;;;;;;3.10;2.13;;;17.90;99.90;;;;;;4997774;28;20519;-68
2023/09/22 00:24:31;;;;;;;2.57;2.37;;;17.90;99.90;;;;;;4998096;28;20411;-68
2023/09/22 00:26:57;;;;;;;2.27;2.07;;;17.90;99.90;;;;;;4997763;28;20419;-68
2023/09/22 00:29:23;;;;;;;1.97;1.77;;;17.90;99.90;;;;;;4997318;28;20419;-67
2023/09/22 00:31:51;;;;;;;2.07;1.90;;;17.80;99.90;;;;;;4996807;28;20319;-68
2023/09/22 00:34:17;;;;;;;2.20;1.63;;;17.80;99.90;;;;;;5014344;28;20173;-67
2023/09/22 00:36:45;;;;;;;3.27;2.57;;;17.70;99.90;;;;;;4997457;28;20433;-67
2023/09/22 00:39:11;;;;;;;1.93;1.83;;;17.70;99.90;;;;;;4997755;28;20834;-67
2023/09/22 00:41:38;;;;;;;3.40;2.20;;;17.60;99.90;;;;;;4996294;28;20566;-68
2023/09/22 00:44:04;;;;;;;2.00;1.90;;;17.60;99.90;;;;;;5014923;28;20168;-67
2023/09/22 00:46:30;;;;;;;2.90;2.40;;;17.60;99.90;;;;;;5014771;28;20415;-68
2023/09/22 00:48:57;;;;;;;2.40;2.00;;;17.50;99.90;;;;;;4980604;28;20452;-74
2023/09/22 00:51:23;;;;;;;2.00;1.90;;;17.50;99.90;;;;;;5013427;28;20434;-67
2023/09/22 00:53:52;;;;;;;3.40;1.80;;;17.40;99.90;;;;;;4995786;28;20415;-67
2023/09/22 00:56:20;;;;;;;2.13;1.70;;;17.30;99.90;;;;;;4997427;28;20412;-67
2023/09/22 00:58:47;;;;;;;2.13;1.93;;;17.30;99.90;;;;;;5014484;28;20451;-70
2023/09/22 01:01:15;;;;;;;2.97;1.83;;;17.20;99.90;;;;;;4995888;28;20431;-67
2023/09/22 01:03:43;;;;;;;2.50;2.30;;;17.10;99.90;;;;;;4997114;28;20768;-68
2023/09/22 01:06:12;;;;;;;2.30;1.83;;;17.10;99.90;;;;;;4980593;28;20473;-68
2023/09/22 01:08:38;;;;;;;2.10;1.87;;;17.10;99.90;;;;;;4996977;28;20442;-66
2023/09/22 01:11:04;;;;;;;2.43;2.20;;;17.00;99.90;;;;;;5013248;28;20860;-68
2023/09/22 01:13:31;;;;;;;4.70;2.40;;;17.00;99.90;;;;;;4980663;28;20182;-67
2023/09/22 01:15:58;;;;;;;2.30;2.10;;;16.90;99.90;;;;;;4996820;28;20411;-68
2023/09/22 01:18:25;;;;;;;3.90;2.23;;;16.90;99.90;;;;;;4996430;28;20458;-66
2023/09/22 01:20:53;;;;;;;3.30;3.10;;;16.90;99.90;;;;;;5013426;28;20791;-72
2023/09/22 01:23:19;;;;;;;3.00;2.57;;;16.90;99.90;;;;;;4996912;28;20486;-67
2023/09/22 01:25:46;;;;;;;3.40;3.10;;;16.90;99.90;;;;;;4996495;28;20491;-66
2023/09/22 01:28:14;;;;;;;4.17;3.60;;;16.90;99.90;;;;;;5013546;28;20577;-66
2023/09/22 01:30:40;;;;;;;3.50;3.20;;;16.90;99.90;;;;;;5012918;28;20923;-66
2023/09/22 01:33:06;;;;;;;3.17;2.87;;;16.90;99.90;;;;;;4995836;28;20409;-67
2023/09/22 01:35:35;;;;;;;5.00;4.50;;;16.90;99.90;;;;;;5013815;28;20482;-70
2023/09/22 01:38:14;;;;;;;4.70;4.30;;;16.80;99.90;;;;;;4996426;28;21001;-68
2023/09/22 01:40:43;;;;;;;4.50;4.13;;;16.80;99.90;;;;;;5012782;28;20997;-67
2023/09/22 01:43:11;;;;;;;4.73;4.23;;;16.80;99.90;;;;;;4996059;28;20807;-67
2023/09/22 01:45:40;;;;;;;5.60;5.13;;;16.70;99.90;;;;;;5013599;28;20407;-67
2023/09/22 01:48:10;;;;;;;4.63;4.30;;;16.70;99.90;;;;;;5009983;28;20514;-68
2023/09/22 01:50:37;;;;;;;5.30;4.50;;;16.70;99.90;;;;;;4995037;28;20919;-66
2023/09/22 01:53:12;;;;;;;4.50;4.20;;;16.70;1.00;;;;;;4995939;28;20415;-67
2023/09/22 01:55:38;;;;;;;4.90;4.60;;;16.80;1.00;;;;;;5013331;28;20433;-68
2023/09/22 01:58:05;;;;;;;6.20;5.70;;;16.70;1.00;;;;;;5012318;28;20451;-68
2023/09/22 02:00:37;;;;;;;5.47;4.97;;;16.70;1.00;;;;;;4978623;28;20820;-66
2023/09/22 02:03:05;;;;;;;6.40;5.80;;;16.70;1.00;;;;;;4995811;28;20450;-68
2023/09/22 02:05:31;;;;;;;5.90;5.30;;;16.60;1.00;;;;;;5013142;28;20759;-66
2023/09/22 02:07:57;;;;;;;6.20;5.60;;;16.60;1.00;;;;;;5013065;28;20433;-66
2023/09/22 02:10:23;;;;;;;6.27;5.77;;;16.70;1.00;;;;;;5012298;28;21047;-66
2023/09/22 02:12:49;;;;;;;6.83;6.10;;;16.70;1.00;;;;;;4995915;28;20168;-67
2023/09/22 02:16:05;;;;;;;6.63;6.03;;;16.70;1.00;;;;;;4979502;28;20411;-66
2023/09/22 02:18:33;;;;;;;6.00;5.53;;;16.60;1.00;;;;;;4978423;28;20473;-68
2023/09/22 02:21:00;;;;;;;5.53;5.13;;;16.60;1.00;;;;;;4994701;28;20439;-66
2023/09/22 02:23:26;;;;;;;5.90;5.40;;;16.60;1.00;;;;;;5012921;28;20754;-70
2023/09/22 02:25:54;;;;;;;5.70;5.20;;;16.60;1.00;;;;;;5012885;28;20404;-66
2023/09/22 02:28:19;;;;;;;5.60;5.10;;;16.60;1.00;;;;;;5013072;28;20912;-68
2023/09/22 02:30:45;;;;;;;5.67;5.17;;;16.50;1.00;;;;;;4994762;28;20431;-66
2023/09/22 02:33:11;;;;;;;5.30;4.90;;;16.50;1.00;;;;;;5012944;28;21173;-66
2023/09/22 02:35:41;;;;;;;4.97;4.57;;;16.50;1.00;;;;;;5012840;28;20176;-67
2023/09/22 02:41:46;;;;;;;4.67;4.27;;;16.50;1.00;;;;;;4931717;29;20441;-69
2023/09/22 02:44:13;;;;;;;5.40;4.90;;;16.50;1.00;;;;;;4927876;29;20414;-70
2023/09/22 02:46:39;;;;;;;4.20;3.90;;;16.50;1.00;;;;;;4997809;28;20912;-67
2023/09/22 02:49:05;;;;;;;4.80;3.73;;;16.50;1.00;;;;;;5016847;28;20423;-68
2023/09/22 02:51:31;;;;;;;3.70;3.40;;;16.50;1.00;;;;;;5016060;28;20199;-69
2023/09/22 02:53:57;;;;;;;3.43;3.23;;;16.50;1.00;;;;;;4999221;28;20928;-67
2023/09/22 02:56:24;;;;;;;3.83;3.53;;;16.50;1.00;;;;;;5016986;28;20180;-66
2023/09/22 02:58:49;;;;;;;3.50;3.30;;;16.50;1.00;;;;;;5016823;28;20270;-68
2023/09/22 03:01:15;;;;;;;4.07;3.77;;;16.60;1.00;;;;;;4997661;28;20526;-66
2023/09/22 03:03:44;;;;;;;3.70;3.40;;;16.50;1.00;;;;;;5016625;28;20164;-69
2023/09/22 03:06:13;;;;;;;3.00;2.80;;;16.40;1.00;;;;;;5016640;28;20260;-67
2023/09/22 03:08:40;;;;;;;2.87;2.53;;;16.40;1.00;;;;;;5016530;28;20430;-66
2023/09/22 03:11:07;;;;;;;2.07;1.97;;;16.40;1.00;;;;;;5015233;28;20446;-68
2023/09/22 03:13:33;;;;;;;2.00;1.90;;;16.20;1.00;;;;;;5016254;28;20498;-73
2023/09/22 03:16:00;;;;;;;1.97;1.87;;;16.30;1.00;;;;;;4999057;28;20431;-68
2023/09/22 03:18:26;;;;;;;2.00;1.83;;;16.30;1.00;;;;;;5016136;28;20481;-68
2023/09/22 03:20:52;;;;;;;1.77;1.60;;;16.20;1.00;;;;;;4981263;28;20439;-68
2023/09/22 03:23:18;;;;;;;1.30;1.20;;;16.20;1.00;;;;;;5016333;28;21190;-68
2023/09/22 03:25:47;;;;;;;2.10;1.90;;;16.20;1.00;;;;;;4982426;28;20180;-68
2023/09/22 03:28:13;;;;;;;1.97;1.77;;;16.10;1.00;;;;;;5016043;28;20186;-68
2023/09/22 03:30:40;;;;;;;2.13;1.10;;;16.10;1.00;;;;;;5015230;28;20427;-67
2023/09/22 03:33:06;;;;;;;1.77;1.67;;;16.10;1.00;;;;;;5016136;28;20864;-66
2023/09/22 03:35:36;;;;;;;1.90;1.60;;;16.10;1.00;;;;;;5015744;28;20411;-73
2023/09/22 03:38:03;;;;;;;1.40;1.30;;;16.10;1.00;;;;;;4998059;28;20462;-69
2023/09/22 03:40:33;;;;;;;1.70;1.60;;;16.10;1.00;;;;;;4997354;28;20986;-67
2023/09/22 03:43:01;;;;;;;1.93;1.83;;;16.10;1.00;;;;;;5016073;28;20847;-67
2023/09/22 03:45:26;;;;;;;2.27;2.17;;;16.10;1.00;;;;;;5016060;28;20427;-66
2023/09/22 03:47:53;;;;;;;2.67;2.47;;;16.00;1.00;;;;;;5015768;28;20473;-68
2023/09/22 03:50:21;;;;;;;1.60;1.50;;;16.10;1.00;;;;;;5014751;28;20179;-68
2023/09/22 03:52:48;;;;;;;1.83;1.73;;;16.00;1.00;;;;;;5016054;28;20438;-67
2023/09/22 03:55:15;;;;;;;2.00;1.90;;;16.00;1.00;;;;;;5014915;28;20439;-67
2023/09/22 03:57:41;;;;;;;2.17;1.90;;;16.00;1.00;;;;;;5015598;28;20455;-67
2023/09/22 04:00:17;;;;;;;3.40;1.83;;;15.90;1.00;;;;;;5014763;28;20402;-68
2023/09/22 04:02:44;;;;;;;2.20;2.10;;;15.90;1.00;;;;;;4999248;28;21182;-67
2023/09/22 04:05:11;;;;;;;2.80;2.60;;;15.90;1.00;;;;;;5015496;28;20435;-67
2023/09/22 04:07:37;;;;;;;3.37;3.07;;;15.90;1.00;;;;;;5015377;28;20403;-68
2023/09/22 04:10:07;;;;;;;3.07;2.87;;;15.90;1.00;;;;;;4997002;28;20485;-69
2023/09/22 04:12:35;;;;;;;3.83;3.53;;;16.00;1.00;;;;;;4981032;28;20443;-69
2023/09/22 04:15:04;;;;;;;3.90;3.23;;;16.00;1.00;;;;;;4998225;28;20442;-68
2023/09/22 04:17:31;;;;;;;2.87;2.67;;;16.10;1.00;;;;;;5015237;28;20550;-67
2023/09/22 04:19:58;;;;;;;2.53;2.43;;;16.10;1.00;;;;;;4996736;28;20407;-67
2023/09/22 04:22:23;;;;;;;3.93;3.20;;;16.10;1.00;;;;;;4997510;28;20438;-67
2023/09/22 04:24:51;;;;;;;4.60;3.07;;;16.10;1.00;;;;;;4997733;28;20400;-68
2023/09/22 04:27:17;;;;;;;2.77;2.57;;;16.00;1.00;;;;;;4997618;28;20259;-66
2023/09/22 04:29:43;;;;;;;4.13;2.50;;;16.00;1.00;;;;;;5013812;28;20963;-67
2023/09/22 04:32:09;;;;;;;2.80;2.60;;;15.90;1.00;;;;;;4997118;28;20435;-67
2023/09/22 04:34:37;;;;;;;2.73;2.53;;;15.90;1.00;;;;;;5014900;28;20430;-68
2023/09/22 04:37:04;;;;;;;4.17;2.40;;;16.00;1.00;;;;;;4997236;28;20259;-68
2023/09/22 04:39:31;;;;;;;2.50;2.00;;;15.90;1.00;;;;;;4997399;28;20426;-67
2023/09/22 04:41:59;;;;;;;2.53;2.33;;;15.80;1.00;;;;;;4997322;28;20431;-66
2023/09/22 04:44:25;;;;;;;2.70;1.83;;;15.80;1.00;;;;;;5014659;28;20474;-68
2023/09/22 04:46:50;;;;;;;1.77;1.67;;;15.80;1.00;;;;;;4997095;28;20924;-73
2023/09/22 04:49:18;;;;;;;2.13;2.00;;;15.70;1.00;;;;;;4996331;28;20220;-69
2023/09/22 04:51:44;;;;;;;1.90;1.70;;;15.80;1.00;;;;;;5013943;28;20537;-67
2023/09/22 04:54:09;;;;;;;1.97;1.60;;;15.80;1.00;;;;;;5014429;28;20422;-67
2023/09/22 04:56:35;;;;;;;5.53;2.43;;;15.80;1.00;;;;;;5014528;28;20164;-67
2023/09/22 04:59:01;;;;;;;3.57;1.67;;;15.80;1.00;;;;;;5014313;28;20184;-68
2023/09/22 05:01:31;;;;;;;1.87;1.50;;;15.80;1.00;;;;;;4996130;28;20199;-68
2023/09/22 05:03:56;;;;;;;2.00;1.83;;;15.70;1.00;;;;;;5014239;28;20168;-67
2023/09/22 05:06:22;;;;;;;1.93;1.50;;;15.80;1.00;;;;;;5013788;28;20802;-67
2023/09/22 05:08:48;;;;;;;1.50;1.30;;;15.80;1.00;;;;;;4995960;28;20181;-70
2023/09/22 05:11:13;;;;;;;1.67;1.57;;;15.80;1.00;;;;;;5013254;28;20195;-67
2023/09/22 05:13:39;;;;;;;4.40;1.80;;;15.80;1.00;;;;;;5014163;28;20680;-68
2023/09/22 05:16:08;;;;;;;1.97;1.77;;;15.70;1.00;;;;;;5014410;28;20171;-67
2023/09/22 05:18:36;;;;;;;2.10;1.90;;;15.60;1.00;;;;;;5014096;28;20672;-68
2023/09/22 05:21:16;;;;;;;2.00;1.90;;;15.60;1.00;;;;;;4979398;28;20463;-68
2023/09/22 05:23:42;;;;;;;10.30;1.60;;;15.60;1.00;;;;;;5013277;28;20724;-67
2023/09/22 05:26:41;;;;;;;1.87;1.77;;;15.50;1.00;;;;;;5013569;28;20413;-67
2023/09/22 05:29:09;;;;;;;6.17;2.20;;;15.40;1.00;;;;;;5013873;28;20411;-69
2023/09/22 05:31:36;;;;;;;2.53;1.60;;;15.40;1.00;;;;;;4979090;28;20445;-69
2023/09/22 05:34:02;;;;;;;2.00;1.90;;;15.40;1.00;;;;;;4996885;28;20407;-67
2023/09/22 05:39:15;;;;;;;3.50;3.20;;;15.40;1.00;;;;;;5002992;28;20466;-67
2023/09/22 05:41:47;;;;;;;3.87;3.23;;;15.30;1.00;;;;;;5012908;28;20438;-70
2023/09/22 05:44:16;;;;;;;6.37;3.80;;;15.30;1.00;;;;;;4995607;28;20771;-67
2023/09/22 05:46:42;;;;;;;5.10;3.90;;;15.30;1.00;;;;;;5013816;28;20412;-67
2023/09/22 05:49:08;;;;;;;5.20;4.73;;;15.30;1.00;;;;;;5013423;28;20788;-67
2023/09/22 05:51:35;;;;;;;6.10;4.60;;;15.40;1.00;;;;;;5012592;28;20431;-66
2023/09/22 05:54:00;;;;;;;5.57;4.80;;;15.40;1.00;;;;;;5013656;28;20414;-65
2023/09/22 05:57:12;;;;;;;5.50;5.00;;;15.30;1.00;;;;;;5013483;28;20486;-66
2023/09/22 06:03:01;;;;;;;5.97;5.37;;;15.40;1.00;;;;;;5013428;28;20807;-68
2023/09/22 06:05:28;;;;;;;6.43;5.50;;;15.40;1.00;;;;;;4996124;28;20411;-66
2023/09/22 06:07:55;;;;;;;5.33;4.83;;;15.40;1.00;;;;;;4995878;28;20992;-67
2023/09/22 06:10:22;;;;;;;6.30;5.80;;;15.50;1.00;;;;;;4995203;28;20426;-66
2023/09/22 06:12:49;;;;;;;7.90;6.13;;;15.50;1.00;;;;;;4995761;28;20415;-68
2023/09/22 06:15:17;;;;;;;8.33;7.17;;;15.50;1.00;;;;;;4996090;28;20407;-67
2023/09/22 06:17:43;;;;;;;7.17;5.73;;;15.50;1.00;;;;;;5013112;28;20537;-67
2023/09/22 06:20:15;;;;;;;7.50;5.10;;;15.50;1.00;;;;;;4993873;28;20506;-68
2023/09/22 06:22:42;;;;;;;6.43;5.40;;;15.50;1.00;;;;;;4996431;28;20196;-67
2023/09/22 06:25:12;;;;;;;7.93;5.50;;;15.50;1.00;;;;;;4996115;28;20377;-67
2023/09/22 06:27:38;;;;;;;6.43;5.83;;;15.60;1.00;;;;;;4979933;28;20820;-68
2023/09/22 06:30:11;;;;;;;5.80;5.27;;;15.60;1.00;;;;;;4995185;28;20772;-66
2023/09/22 06:32:41;;;;;;;5.27;4.37;;;15.60;1.00;;;;;;4996106;28;20434;-68
2023/09/22 06:35:09;;;;;;;5.33;4.83;;;15.70;1.00;;;;;;4979562;28;20903;-68
2023/09/22 06:37:40;;;;;;;5.60;4.07;;;15.80;1.00;;;;;;4994741;28;20462;-73
2023/09/22 06:40:38;;;;;;;6.70;4.60;;;15.80;1.00;;;;;;4979151;28;20415;-68
2023/09/22 06:43:05;;;;;;;4.63;4.23;;;15.80;1.00;;;;;;5007351;28;20800;-67
2023/09/22 06:48:56;;;;;;;3.93;3.63;;;15.80;1.00;;;;;;5012877;28;20434;-71
2023/09/22 06:51:24;;;;;;;3.90;3.60;;;15.80;1.00;;;;;;4995353;28;20431;-67
2023/09/22 06:53:53;;;;;;;4.50;4.10;;;16.00;1.00;;;;;;4995443;28;20411;-67
2023/09/22 06:56:19;;;;;;;5.50;5.00;;;16.10;1.00;;;;;;4995781;28;20259;-68
2023/09/22 06:58:47;;;;;;;4.87;4.40;;;16.10;1.00;;;;;;5010617;28;20884;-67
2023/09/22 07:01:14;;;;;;;5.00;4.40;;;16.20;1.00;;;;;;4994433;28;20242;-68
2023/09/22 07:03:44;;;;;;;6.60;5.73;;;16.20;1.00;;;;;;4995082;28;20415;-67
2023/09/22 07:06:13;;;;;;;6.97;5.40;;;16.20;99.90;;;;;;4979111;28;20451;-67
2023/09/22 07:08:39;;;;;;;6.53;5.93;;;16.30;99.90;;;;;;4995718;28;20419;-68
2023/09/22 07:11:08;;;;;;;6.73;6.13;;;16.40;99.90;;;;;;4994669;28;20459;-67
2023/09/22 07:13:35;;;;;;;6.80;5.20;;;16.30;99.90;;;;;;4993517;28;20505;-69
2023/09/22 07:16:02;;;;;;;7.47;5.80;;;16.40;99.90;;;;;;5012892;28;20410;-68
2023/09/22 07:18:29;;;;;;;6.47;5.73;;;16.50;99.90;;;;;;4995193;28;20482;-67
2023/09/22 07:20:55;;;;;;;6.50;5.90;;;16.60;99.90;;;;;;4994457;28;20435;-68
2023/09/22 07:23:26;;;;;;;7.63;6.53;;;16.60;99.90;;;;;;4995578;28;20443;-67
2023/09/22 07:26:09;;;;;;;6.13;5.63;;;16.60;99.90;;;;;;4995127;28;20411;-68
2023/09/22 07:28:36;;;;;;;6.00;5.40;;;16.60;99.90;;;;;;5012579;28;20403;-67
2023/09/22 07:31:15;;;;;;;9.50;7.90;;;16.70;99.90;;;;;;4994910;28;20435;-68
2023/09/22 07:33:45;;;;;;;8.07;6.73;;;16.70;99.90;;;;;;4982984;28;20429;-67
2023/09/22 07:36:15;;;;;;;8.00;6.50;;;16.70;99.90;;;;;;4999332;28;20411;-69
2023/09/22 07:38:44;;;;;;;7.57;6.90;;;16.80;99.90;;;;;;4998479;28;20469;-67
2023/09/22 07:41:10;;;;;;;8.50;7.00;;;16.80;99.90;;;;;;5015531;28;20765;-68
2023/09/22 07:43:36;;;;;;;9.90;7.33;;;16.70;99.90;;;;;;4996968;28;20545;-68
2023/09/22 07:46:04;;;;;;;7.77;7.07;;;16.70;99.90;;;;;;4996462;28;20439;-68
2023/09/22 07:48:32;;;;;;;9.20;8.30;;;16.60;99.90;;;;;;5011701;28;20943;-71
2023/09/22 07:51:04;;;;;;;9.47;8.47;;;16.60;99.90;;;;;;4992346;28;20498;-67
2023/09/22 07:53:31;;;;;;;10.87;9.37;;;16.60;99.90;;;;;;4995176;28;20435;-69
2023/09/22 07:55:59;;;;;;;10.90;8.60;;;16.70;99.90;;;;;;5014566;28;20427;-68
2023/09/22 07:58:28;;;;;;;11.30;9.20;;;16.70;99.90;;;;;;5014657;28;20558;-68
2023/09/22 08:00:58;;;;;;;8.50;7.70;;;16.70;99.90;;;;;;4997568;28;20446;-68
2023/09/22 08:03:27;;;;;;;9.90;8.90;;;16.70;99.90;;;;;;5014678;28;20411;-67
2023/09/22 08:05:53;;;;;;;11.83;9.33;;;16.80;99.90;;;;;;5010669;28;20935;-68
2023/09/22 08:08:20;;;;;;;13.67;8.87;;;16.70;99.90;;;;;;4979272;28;20447;-68
2023/09/22 08:10:46;;;;;;;12.60;10.33;;;16.70;99.90;;;;;;4978530;28;20827;-67
2023/09/22 08:13:13;;;;;;;12.07;9.53;;;16.70;99.90;;;;;;5014707;28;20439;-68
2023/09/22 08:15:40;;;;;;;11.80;9.70;;;16.70;99.90;;;;;;4978680;28;20443;-68
2023/09/22 08:18:07;;;;;;;12.17;10.90;;;16.70;99.90;;;;;;4980916;28;20509;-68
2023/09/22 08:20:34;;;;;;;18.73;11.37;;;16.70;99.90;;;;;;4978885;28;20526;-68
2023/09/22 08:23:00;;;;;;;15.03;11.33;;;16.70;99.90;;;;;;4997135;28;20439;-69
2023/09/22 08:25:26;;;;;;;13.07;10.30;;;16.70;99.90;;;;;;4997281;28;20465;-68
2023/09/22 08:27:52;;;;;;;12.80;11.27;;;16.80;99.90;;;;;;5014167;28;20200;-68
2023/09/22 08:30:20;;;;;;;12.27;11.03;;;16.90;99.90;;;;;;4995008;28;20192;-68
2023/09/22 08:32:47;;;;;;;13.00;11.37;;;17.00;99.90;;;;;;4996801;28;20847;-68
2023/09/22 08:35:15;;;;;;;11.03;9.93;;;17.10;99.90;;;;;;4977412;28;20448;-68
2023/09/22 08:37:43;;;;;;;10.83;9.70;;;17.10;99.90;;;;;;4990539;28;20258;-71
2023/09/22 08:40:16;;;;;;;12.83;11.60;;;17.20;99.90;;;;;;5013174;28;20502;-69
2023/09/22 08:42:44;;;;;;;11.30;10.20;;;17.30;99.90;;;;;;4980359;28;20454;-69
2023/09/22 08:45:12;;;;;;;12.17;10.73;;;17.20;99.90;;;;;;4995316;28;20477;-70
2023/09/22 08:47:42;;;;;;;11.17;9.70;;;17.20;99.90;;;;;;5013899;28;20840;-68
2023/09/22 08:50:10;;;;;;;12.73;11.43;;;17.30;99.90;;;;;;4994429;28;20447;-68
2023/09/22 08:52:38;;;;;;;11.40;10.30;;;17.40;99.90;;;;;;4993897;28;20498;-68
2023/09/22 08:55:08;;;;;;;11.13;9.50;;;17.50;99.90;;;;;;4976869;28;20447;-69
2023/09/22 08:57:35;;;;;;;12.13;10.10;;;17.60;99.90;;;;;;4996693;28;20866;-68
2023/09/22 09:00:03;;;;;;;10.53;9.30;;;17.80;99.90;;;;;;4977801;28;20442;-68
2023/09/22 09:02:29;;;;;;;11.00;9.17;;;18.00;99.90;;;;;;5011866;28;20816;-68
2023/09/22 09:04:57;;;;;;;10.27;9.27;;;18.20;99.90;;;;;;4995911;28;20525;-68
2023/09/22 09:07:26;;;;;;;10.30;9.40;;;18.50;99.90;;;;;;5013658;28;20435;-68
2023/09/22 09:09:55;;;;;;;11.77;7.90;;;18.70;96.40;;;;;;4996484;28;20427;-68
2023/09/22 09:12:21;;;;;;;10.20;8.20;;;18.80;72.90;;;;;;5013220;28;20534;-68
2023/09/22 09:14:49;;;;;;;9.70;7.80;;;18.80;52.30;;;;;;5012217;28;20525;-68
2023/09/22 09:17:22;;;;;;;8.37;7.67;;;18.80;46.40;;;;;;4994037;28;20435;-68
2023/09/22 09:19:56;;;;;;;8.10;7.30;;;18.80;13.40;;;;;;4994050;28;20435;-67
2023/09/22 09:22:38;;;;;;;7.53;6.93;;;18.90;1.00;;;;;;5010589;28;20480;-68
2023/09/22 09:25:09;;;;;;;7.67;6.97;;;19.20;1.00;;;;;;5012468;28;20435;-67
2023/09/22 09:27:36;;;;;;;8.87;7.97;;;19.50;1.00;;;;;;4995825;28;20489;-68
2023/09/22 09:30:12;;;;;;;7.97;6.63;;;19.70;1.00;;;;;;5008533;28;20450;-68
2023/09/22 09:32:38;;;;;;;7.93;7.23;;;19.90;1.00;;;;;;4995478;28;20454;-69
2023/09/22 09:35:04;;;;;;;7.57;6.97;;;19.90;1.00;;;;;;4960371;28;20590;-69
2023/09/22 09:37:32;;;;;;;7.70;7.03;;;20.00;1.00;;;;;;4995502;28;20483;-69
2023/09/22 09:40:00;;;;;;;7.63;6.93;;;20.10;1.00;;;;;;5012650;28;20950;-70
2023/09/22 09:42:27;;;;;;;7.07;6.37;;;20.30;1.00;;;;;;5013369;28;20790;-68
2023/09/22 09:44:56;;;;;;;6.80;6.20;;;20.20;1.00;;;;;;5012742;28;20526;-70
2023/09/22 09:47:26;;;;;;;6.60;6.00;;;20.00;1.00;;;;;;5012038;28;20439;-67
2023/09/22 09:49:55;;;;;;;6.50;5.90;;;19.70;1.00;;;;;;5012885;28;21069;-67
2023/09/22 09:52:50;;;;;;;6.50;5.50;;;19.70;1.00;;;;;;4996436;28;20427;-68
2023/09/22 09:55:17;;;;;;;5.40;5.00;;;19.70;1.00;;;;;;4979432;28;20522;-67
2023/09/22 09:57:45;;;;;;;6.37;5.70;;;19.90;1.00;;;;;;4996362;28;20880;-67
2023/09/22 10:00:14;;;;;;;6.30;5.80;;;19.70;1.00;;;;;;5010783;28;20932;-70
2023/09/22 10:02:49;;;;;;;6.20;5.60;;;19.40;1.00;;;;;;4993502;28;20557;-67
2023/09/22 10:05:20;;;;;;;5.97;5.43;;;19.20;1.00;;;;;;4979362;28;20967;-71
2023/09/22 10:07:48;;;;;;;5.77;5.37;;;19.20;1.00;;;;;;4976573;28;20420;-67
2023/09/22 10:10:24;;;;;;;6.57;5.97;;;19.10;1.00;;;;;;4960199;28;20416;-70
2023/09/22 10:12:52;;;;;;;6.30;5.80;;;19.00;1.00;;;;;;4945233;28;20422;-68
2023/09/22 10:15:52;;;;;;;6.13;5.53;;;18.90;1.00;;;;;;4998555;28;20431;-69
2023/09/22 10:18:19;;;;;;;6.13;5.00;;;18.90;1.00;;;;;;5013412;28;20538;-67
2023/09/22 10:20:48;;;;;;;6.27;5.77;;;19.00;1.00;;;;;;4994469;28;20445;-68
2023/09/22 10:23:27;;;;;;;5.67;5.17;;;19.10;1.00;;;;;;5013416;28;20395;-68
2023/09/22 10:26:15;;;;;;;5.53;5.13;;;19.10;1.00;;;;;;4997562;28;20407;-70
2023/09/22 10:28:43;;;;;;;6.20;5.47;;;18.90;1.00;;;;;;5013581;28;20595;-67
2023/09/22 10:31:10;;;;;;;6.53;5.90;;;18.90;1.00;;;;;;4973951;28;20554;-68
2023/09/22 10:33:36;;;;;;;6.07;5.57;;;18.80;1.00;;;;;;4978748;28;20486;-70
2023/09/22 10:36:07;;;;;;;5.63;5.13;;;19.00;1.00;;;;;;4979967;28;20411;-68
2023/09/22 10:38:53;;;;;;;5.57;5.00;;;19.20;1.00;;;;;;4979785;28;20554;-69
2023/09/22 10:41:19;;;;;;;5.53;5.13;;;19.40;1.00;;;;;;4978224;28;20440;-68
2023/09/22 10:43:58;;;;;;;5.40;4.90;;;19.40;1.00;;;;;;5012957;28;20734;-67
2023/09/22 10:46:26;;;;;;;5.47;4.97;;;19.70;1.00;;;;;;5010764;28;20614;-68
2023/09/22 10:48:52;;;;;;;5.60;4.73;;;19.70;1.00;;;;;;4993582;28;20796;-71
2023/09/22 10:51:22;;;;;;;5.43;5.03;;;19.50;1.00;;;;;;4976827;28;20466;-71
2023/09/22 10:54:15;;;;;;;5.37;4.97;;;19.20;1.00;;;;;;4976623;28;20475;-68
2023/09/22 10:56:43;;;;;;;5.53;5.13;;;19.00;1.00;;;;;;4988912;28;20436;-69
2023/09/22 10:59:11;;;;;;;5.67;4.13;;;18.90;1.00;;;;;;4977564;28;21042;-68
2023/09/22 11:01:47;;;;;;;4.67;4.27;;;18.70;1.00;;;;;;4991867;28;20873;-69
2023/09/22 11:04:17;;;;;;;6.17;4.70;;;18.60;1.00;;;;;;4996057;28;20438;-68
2023/09/22 11:06:46;;;;;;;5.27;4.83;;;18.60;1.00;;;;;;4998121;28;20913;-69
2023/09/22 11:09:14;;;;;;;5.77;5.30;;;18.50;1.00;;;;;;4999498;28;20520;-67
2023/09/22 11:11:45;;;;;;;4.57;4.17;;;18.50;1.00;;;;;;5015888;28;20426;-70
2023/09/22 11:14:11;;;;;;;5.60;5.10;;;18.60;1.00;;;;;;5015840;28;20526;-68
2023/09/22 11:16:37;;;;;;;4.93;4.53;;;18.80;1.00;;;;;;4981296;28;20520;-68
2023/09/22 11:19:10;;;;;;;5.00;4.50;;;18.90;1.00;;;;;;4997303;28;20935;-67
2023/09/22 11:21:40;;;;;;;4.47;3.90;;;19.00;1.00;;;;;;4998253;28;20204;-68
2023/09/22 11:24:11;;;;;;;4.43;4.03;;;19.20;1.00;;;;;;5013760;28;20422;-68
2023/09/22 11:26:42;;;;;;;4.23;3.93;;;19.50;1.00;;;;;;4999207;28;20473;-68
2023/09/22 11:29:09;;;;;;;5.20;4.70;;;19.70;1.00;;;;;;5016322;28;20445;-67
2023/09/22 11:31:56;;;;;;;4.77;4.37;;;19.90;1.00;;;;;;4998173;28;20439;-68
2023/09/22 11:34:23;;;;;;;4.40;4.10;;;19.90;1.00;;;;;;4981198;28;20848;-68
2023/09/22 11:36:51;;;;;;;3.90;3.60;;;20.00;1.00;;;;;;5016423;28;20443;-69
2023/09/22 11:39:27;;;;;;;4.23;3.93;;;20.20;1.00;;;;;;5015984;28;20461;-69
2023/09/22 11:41:53;;;;;;;4.63;4.17;;;20.30;1.00;;;;;;4982916;28;20509;-68
2023/09/22 11:44:20;;;;;;;4.00;3.70;;;20.10;1.00;;;;;;5016167;28;20399;-67
2023/09/22 11:46:46;;;;;;;4.20;3.87;;;20.00;1.00;;;;;;5016066;28;20570;-70
2023/09/22 11:49:13;;;;;;;6.17;3.57;;;20.30;1.00;;;;;;5016153;28;20490;-67
2023/09/22 11:51:43;;;;;;;3.93;3.50;;;20.80;1.00;;;;;;5015271;28;20919;-68
2023/09/22 11:54:15;;;;;;;7.10;3.50;;;20.80;1.00;;;;;;5015893;28;20494;-68
2023/09/22 11:56:43;;;;;;;3.57;3.37;;;20.80;1.00;;;;;;4998526;28;20430;-68
2023/09/22 11:59:25;;;;;;;3.40;3.20;;;20.60;1.00;;;;;;4998242;28;20521;-66
2023/09/22 12:01:52;;;;;;;4.00;3.70;;;20.30;1.00;;;;;;4998171;28;20490;-68
2023/09/22 12:04:19;;;;;;;3.40;3.10;;;20.20;1.00;;;;;;4982204;28;20815;-67
2023/09/22 12:06:45;;;;;;;3.50;3.10;;;20.70;1.00;;;;;;4997588;28;20472;-70
2023/09/22 12:09:13;;;;;;;3.33;3.00;;;20.90;1.00;;;;;;4982552;28;20415;-68
2023/09/22 12:11:42;;;;;;;5.83;3.00;;;20.90;1.00;;;;;;4981487;28;20434;-67
2023/09/22 12:14:10;;;;;;;2.90;2.70;;;21.10;1.00;;;;;;4997661;28;20461;-67
2023/09/22 12:16:35;;;;;;;2.80;2.60;;;21.10;1.00;;;;;;4997738;28;20411;-67
2023/09/22 12:19:04;;;;;;;2.77;2.13;;;21.20;1.00;;;;;;5015479;28;20493;-68
2023/09/22 12:21:31;;;;;;;3.23;2.93;;;21.30;1.00;;;;;;5014756;28;20192;-69
2023/09/22 12:23:58;;;;;;;3.10;2.80;;;21.30;1.00;;;;;;5015620;28;20760;-67
2023/09/22 12:26:26;;;;;;;2.80;2.60;;;21.30;1.00;;;;;;5015251;28;20403;-69
2023/09/22 12:28:53;;;;;;;4.30;2.60;;;21.70;1.00;;;;;;4997672;28;20900;-67
2023/09/22 12:31:20;;;;;;;2.93;1.90;;;22.00;1.00;;;;;;5014678;28;20427;-66
2023/09/22 12:33:46;;;;;;;2.20;2.10;;;22.40;1.00;;;;;;4981478;28;20562;-67
2023/09/22 12:36:14;;;;;;;3.20;2.90;;;23.40;1.00;;;;;;5015113;28;20411;-68
2023/09/22 12:38:41;;;;;;;2.63;2.43;;;24.30;1.00;;;;;;5015102;28;20462;-70
2023/09/22 12:41:07;;;;;;;3.43;2.30;;;25.00;99.90;;;;;;5014447;28;20938;-68
2023/09/22 12:43:34;;;;;;;3.63;2.30;;;25.20;99.90;;;;;;4981164;28;20502;-68
2023/09/22 12:46:00;;;;;;;3.43;3.10;;;25.00;99.90;;;;;;5015132;28;20188;-69
2023/09/22 12:48:28;;;;;;;2.73;2.50;;;23.70;99.90;;;;;;5014929;28;20415;-68
2023/09/22 12:50:57;;;;;;;3.50;3.20;;;22.70;99.90;;;;;;5013825;28;20266;-68
2023/09/22 12:53:25;;;;;;;2.50;2.30;;;22.10;99.90;;;;;;4997470;28;20430;-71
2023/09/22 12:55:58;;;;;;;2.27;2.10;;;21.90;99.90;;;;;;5015010;28;20430;-67
2023/09/22 12:58:26;;;;;;;3.67;2.37;;;23.00;99.90;;;;;;4997824;28;20458;-67
2023/09/22 13:00:57;;;;;;;4.90;3.07;;;24.00;99.90;;;;;;4964265;28;20447;-67
2023/09/22 13:03:23;;;;;;;3.07;2.77;;;23.30;99.90;;;;;;5014774;28;20411;-69
2023/09/22 13:05:51;;;;;;;2.70;2.50;;;22.30;99.90;;;;;;4997322;28;20478;-67
2023/09/22 13:08:19;;;;;;;3.20;2.70;;;21.40;99.90;;;;;;5014345;28;20411;-68
2023/09/22 13:10:46;;;;;;;2.10;1.93;;;21.00;99.90;;;;;;4979761;28;20446;-70
2023/09/22 13:13:13;;;;;;;2.60;2.07;;;20.90;99.90;;;;;;4980973;28;20454;-68